createdAt,value
2022-10-22T00:01:21.588Z,16.04
2022-10-22T00:03:49.895Z,16.04
2022-10-22T00:06:19.562Z,15.96
2022-10-22T00:08:47.990Z,15.93
2022-10-22T00:11:18.048Z,15.94
2022-10-22T00:16:20.728Z,15.93
2022-10-22T00:18:49.161Z,15.93
2022-10-22T00:21:19.008Z,15.95
2022-10-22T00:23:47.452Z,16.00
2022-10-22T00:26:15.812Z,16.01
2022-10-22T00:28:44.129Z,16.01
2022-10-22T00:31:12.799Z,16.04
2022-10-22T00:33:41.087Z,16.08
2022-10-22T00:36:10.076Z,16.09
2022-10-22T00:38:40.222Z,16.05
2022-10-22T00:41:08.919Z,16.00
2022-10-22T00:43:56.137Z,15.97
2022-10-22T00:46:24.444Z,15.96
2022-10-22T00:48:53.791Z,15.98
2022-10-22T00:51:25.355Z,16.02
2022-10-22T00:53:58.207Z,16.02
2022-10-22T00:56:27.088Z,16.03
2022-10-22T00:58:59.948Z,15.99
2022-10-22T01:01:32.497Z,15.88
2022-10-22T01:04:01.593Z,15.77
2022-10-22T01:06:35.043Z,15.74
2022-10-22T01:09:14.429Z,15.71
2022-10-22T01:11:54.610Z,15.64
2022-10-22T01:14:31.072Z,15.58
2022-10-22T01:17:07.104Z,15.59
2022-10-22T01:19:54.730Z,15.64
2022-10-22T01:22:32.239Z,15.60
2022-10-22T01:25:10.057Z,15.52
2022-10-22T01:27:58.227Z,15.42
2022-10-22T01:30:28.427Z,15.42
2022-10-22T01:33:03.295Z,15.41
2022-10-22T01:35:35.700Z,15.42
2022-10-22T01:38:06.986Z,15.48
2022-10-22T01:40:36.329Z,15.56
2022-10-22T01:43:07.094Z,15.64
2022-10-22T01:45:39.500Z,15.69
2022-10-22T01:48:25.855Z,15.71
2022-10-22T01:51:27.924Z,15.75
2022-10-22T01:54:04.071Z,15.75
2022-10-22T01:56:45.757Z,15.70
2022-10-22T01:59:19.965Z,15.71
2022-10-22T02:01:58.464Z,15.74
2022-10-22T02:04:31.587Z,15.75
2022-10-22T02:07:06.012Z,15.74
2022-10-22T02:09:36.007Z,15.72
2022-10-22T02:12:07.575Z,15.71
2022-10-22T02:14:42.292Z,15.70
2022-10-22T02:17:17.011Z,15.69
2022-10-22T02:19:50.752Z,15.63
2022-10-22T02:22:19.988Z,15.61
2022-10-22T02:24:49.887Z,15.54
2022-10-22T02:27:26.019Z,15.44
2022-10-22T02:30:02.887Z,15.33
2022-10-22T02:32:39.849Z,15.25
2022-10-22T02:35:11.449Z,15.20
2022-10-22T02:37:41.193Z,15.17
2022-10-22T02:40:10.816Z,15.14
2022-10-22T02:42:41.217Z,15.11
2022-10-22T02:45:10.701Z,15.12
2022-10-22T02:47:40.433Z,15.13
2022-10-22T02:50:10.387Z,15.15
2022-10-22T02:52:39.261Z,15.14
2022-10-22T02:55:08.548Z,15.17
2022-10-22T02:57:37.695Z,15.18
2022-10-22T03:00:10.585Z,15.16
2022-10-22T03:02:40.360Z,15.21
2022-10-22T03:05:09.795Z,15.25
2022-10-22T03:07:39.159Z,15.26
2022-10-22T03:10:08.735Z,15.28
2022-10-22T03:12:37.120Z,15.32
2022-10-22T03:15:06.731Z,15.32
2022-10-22T03:17:35.050Z,15.34
2022-10-22T03:20:05.364Z,15.33
2022-10-22T03:22:36.408Z,15.30
2022-10-22T03:25:10.351Z,15.28
2022-10-22T03:27:40.044Z,15.27
2022-10-22T03:30:11.505Z,15.27
2022-10-22T03:32:40.173Z,15.27
2022-10-22T03:35:10.375Z,15.29
2022-10-22T03:37:39.299Z,15.29
2022-10-22T03:40:09.808Z,15.31
2022-10-22T03:42:38.179Z,15.32
2022-10-22T03:45:07.984Z,15.32
2022-10-22T03:47:39.399Z,15.35
2022-10-22T03:50:11.085Z,15.41
2022-10-22T03:52:40.519Z,15.46
2022-10-22T03:55:10.312Z,15.51
2022-10-22T03:57:38.990Z,15.51
2022-10-22T04:00:09.044Z,15.52
2022-10-22T04:02:38.196Z,15.50
2022-10-22T04:05:07.432Z,15.51
2022-10-22T04:07:37.517Z,15.49
2022-10-22T04:10:07.024Z,15.47
2022-10-22T04:12:35.400Z,15.46
2022-10-22T04:15:03.766Z,15.44
2022-10-22T04:17:35.643Z,15.44
2022-10-22T04:20:05.319Z,15.45
2022-10-22T04:22:35.701Z,15.45
2022-10-22T04:25:06.326Z,15.47
2022-10-22T04:27:35.810Z,15.50
2022-10-22T04:30:04.892Z,15.53
2022-10-22T04:32:33.255Z,15.56
2022-10-22T04:35:01.601Z,15.56
2022-10-22T04:37:29.945Z,15.55
2022-10-22T04:39:58.470Z,15.53
2022-10-22T04:42:32.872Z,15.54
2022-10-22T04:45:01.261Z,15.53
2022-10-22T04:47:29.595Z,15.51
2022-10-22T04:49:57.899Z,15.52
2022-10-22T04:52:26.230Z,15.52
2022-10-22T04:54:54.599Z,15.50
2022-10-22T04:57:22.904Z,15.50
2022-10-22T04:59:53.377Z,15.51
2022-10-22T05:02:21.679Z,15.51
2022-10-22T05:04:50.061Z,15.52
2022-10-22T05:07:18.475Z,15.56
2022-10-22T05:09:46.791Z,15.56
2022-10-22T05:12:15.101Z,15.51
2022-10-22T05:14:44.785Z,15.46
2022-10-22T05:17:14.761Z,15.45
2022-10-22T05:19:43.084Z,15.43
2022-10-22T05:22:11.404Z,15.41
2022-10-22T05:24:39.987Z,15.39
2022-10-22T05:27:08.404Z,15.36
2022-10-22T05:29:37.086Z,15.34
2022-10-22T05:32:06.116Z,15.30
2022-10-22T05:34:36.269Z,15.23
2022-10-22T05:37:05.049Z,15.19
2022-10-22T05:39:36.754Z,15.19
2022-10-22T05:42:05.508Z,15.18
2022-10-22T05:44:34.045Z,15.19
2022-10-22T05:47:02.381Z,15.21
2022-10-22T05:49:30.764Z,15.20
2022-10-22T05:52:00.404Z,15.18
2022-10-22T05:54:28.716Z,15.14
2022-10-22T05:56:57.128Z,15.14
2022-10-22T05:59:25.463Z,15.13
2022-10-22T06:01:53.794Z,15.12
2022-10-22T06:04:22.126Z,15.11
2022-10-22T06:06:52.540Z,15.10
2022-10-22T06:09:25.946Z,15.06
2022-10-22T06:11:55.098Z,15.07
2022-10-22T06:14:23.814Z,15.06
2022-10-22T06:16:52.715Z,15.08
2022-10-22T06:19:22.801Z,15.12
2022-10-22T06:21:51.172Z,15.18
2022-10-22T06:24:19.590Z,15.22
2022-10-22T06:26:52.380Z,15.19
2022-10-22T06:29:20.785Z,15.17
2022-10-22T06:31:49.327Z,15.18
2022-10-22T06:34:19.002Z,15.16
2022-10-22T06:36:48.151Z,15.15
2022-10-22T06:39:18.278Z,15.13
2022-10-22T06:41:47.325Z,15.09
2022-10-22T06:44:18.252Z,15.03
2022-10-22T06:46:47.228Z,14.96
2022-10-22T06:49:17.170Z,14.93
2022-10-22T06:51:45.626Z,14.85
2022-10-22T06:54:14.045Z,14.79
2022-10-22T06:56:42.848Z,14.75
2022-10-22T06:59:11.546Z,14.73
2022-10-22T07:01:42.319Z,14.70
2022-10-22T07:04:12.076Z,14.68
2022-10-22T07:06:40.475Z,14.68
2022-10-22T07:09:09.262Z,14.65
2022-10-22T07:11:41.400Z,14.61
2022-10-22T07:14:10.248Z,14.58
2022-10-22T07:16:38.879Z,14.58
2022-10-22T07:19:08.721Z,14.62
2022-10-22T07:21:42.909Z,14.69
2022-10-22T07:24:14.307Z,14.72
2022-10-22T07:26:42.680Z,14.75
2022-10-22T07:29:11.103Z,14.75
2022-10-22T07:31:39.655Z,14.75
2022-10-22T07:34:10.404Z,14.75
2022-10-22T07:36:38.856Z,14.82
2022-10-22T07:39:07.223Z,14.82
2022-10-22T07:41:35.696Z,14.86
2022-10-22T07:44:04.299Z,14.90
2022-10-22T07:46:32.634Z,14.89
2022-10-22T07:49:00.986Z,14.88
2022-10-22T07:51:30.687Z,14.90
2022-10-22T07:53:59.040Z,14.91
2022-10-22T07:56:27.660Z,14.92
2022-10-22T07:58:56.086Z,14.93
2022-10-22T08:01:24.449Z,14.93
2022-10-22T08:03:53.048Z,14.92
2022-10-22T08:06:21.612Z,14.92
2022-10-22T08:08:51.414Z,14.94
2022-10-22T08:11:19.735Z,14.96
2022-10-22T08:13:48.284Z,14.99
2022-10-22T08:16:16.712Z,15.03
2022-10-22T08:18:45.319Z,15.03
2022-10-22T08:21:14.313Z,15.06
2022-10-22T08:23:43.213Z,15.08
2022-10-22T08:26:13.101Z,15.08
2022-10-22T08:28:41.450Z,15.07
2022-10-22T08:31:10.106Z,15.09
2022-10-22T08:33:38.805Z,15.11
2022-10-22T08:36:08.405Z,15.13
2022-10-22T08:38:36.776Z,15.14
2022-10-22T08:41:11.230Z,15.16
2022-10-22T08:43:57.675Z,15.20
2022-10-22T08:46:45.261Z,15.24
2022-10-22T08:49:20.172Z,15.26
2022-10-22T08:51:48.987Z,15.29
2022-10-22T08:54:29.856Z,15.27
2022-10-22T08:57:11.022Z,15.23
2022-10-22T08:59:46.314Z,15.27
2022-10-22T09:02:29.436Z,15.32
2022-10-22T09:05:11.485Z,15.31
2022-10-22T09:07:43.138Z,15.31
2022-10-22T09:10:13.972Z,15.34
2022-10-22T09:12:44.792Z,15.39
2022-10-22T09:15:19.253Z,15.44
2022-10-22T09:17:59.714Z,15.44
2022-10-22T09:20:34.107Z,15.45
2022-10-22T09:23:15.602Z,15.49
2022-10-22T09:25:46.892Z,15.53
2022-10-22T09:28:16.034Z,15.56
2022-10-22T09:30:46.193Z,15.57
2022-10-22T09:33:21.473Z,15.58
2022-10-22T09:35:54.853Z,15.58
2022-10-22T09:38:27.524Z,15.56
2022-10-22T09:40:58.000Z,15.59
2022-10-22T09:43:26.818Z,15.59
2022-10-22T09:46:00.381Z,15.61
2022-10-22T09:48:34.975Z,15.58
2022-10-22T09:51:12.026Z,15.55
2022-10-22T09:53:44.028Z,15.54
2022-10-22T09:56:22.236Z,15.53
2022-10-22T09:58:52.163Z,15.49
2022-10-22T10:01:28.549Z,15.50
2022-10-22T10:04:08.388Z,15.50
2022-10-22T10:06:40.614Z,15.53
2022-10-22T10:09:16.066Z,15.61
2022-10-22T10:11:49.989Z,15.68
2022-10-22T10:14:27.471Z,15.75
2022-10-22T10:17:02.065Z,15.83
2022-10-22T10:19:47.804Z,15.86
2022-10-22T10:22:29.153Z,15.86
2022-10-22T10:25:13.748Z,15.88
2022-10-22T10:27:45.372Z,15.90
2022-10-22T10:30:17.964Z,15.96
2022-10-22T10:33:03.860Z,15.98
2022-10-22T10:35:41.420Z,15.97
2022-10-22T10:38:27.237Z,15.98
2022-10-22T10:41:05.347Z,16.01
2022-10-22T10:43:46.562Z,16.03
2022-10-22T10:46:23.208Z,16.06
2022-10-22T10:49:00.363Z,16.11
2022-10-22T10:51:43.833Z,16.12
2022-10-22T10:54:23.003Z,16.15
2022-10-22T10:56:56.782Z,16.18
2022-10-22T10:59:40.900Z,16.21
2022-10-22T11:02:48.036Z,16.21
2022-10-22T11:05:28.281Z,16.24
2022-10-22T11:08:00.770Z,16.26
2022-10-22T11:10:33.208Z,16.28
2022-10-22T11:13:11.225Z,16.27
2022-10-22T11:15:41.141Z,16.25
2022-10-22T11:18:19.921Z,16.24
2022-10-22T11:21:08.349Z,16.23
2022-10-22T11:23:43.485Z,16.26
2022-10-22T11:26:16.642Z,16.30
2022-10-22T11:28:50.008Z,16.33
2022-10-22T11:31:20.227Z,16.36
2022-10-22T11:34:00.551Z,16.39
2022-10-22T11:36:41.057Z,16.45
2022-10-22T11:39:30.349Z,16.47
2022-10-22T11:42:00.026Z,16.52
2022-10-22T11:44:30.308Z,16.55
2022-10-22T11:47:00.887Z,16.56
2022-10-22T11:49:43.349Z,16.60
2022-10-22T11:52:54.712Z,16.62
2022-10-22T11:55:51.878Z,16.66
2022-10-22T11:58:36.349Z,16.69
2022-10-22T12:01:27.643Z,16.66
2022-10-22T12:04:19.107Z,16.60
2022-10-22T12:07:00.494Z,16.59
2022-10-22T12:09:34.361Z,16.62
2022-10-22T12:12:14.705Z,16.68
2022-10-22T12:14:54.521Z,16.74
2022-10-22T12:17:23.971Z,16.81
2022-10-22T12:20:02.007Z,16.90
2022-10-22T12:22:33.328Z,16.99
2022-10-22T12:25:11.005Z,17.07
2022-10-22T12:27:41.763Z,17.12
2022-10-22T12:30:20.093Z,17.20
2022-10-22T12:32:48.482Z,17.26
2022-10-22T12:35:18.714Z,17.29
2022-10-22T12:37:51.130Z,17.27
2022-10-22T12:40:23.725Z,17.23
2022-10-22T12:42:54.146Z,17.21
2022-10-22T12:45:24.102Z,17.18
2022-10-22T12:48:04.045Z,17.19
2022-10-22T12:50:35.217Z,17.29
2022-10-22T12:53:03.607Z,17.51
2022-10-22T12:55:35.471Z,17.77
2022-10-22T12:58:07.198Z,17.98
2022-10-22T13:00:36.334Z,18.16
2022-10-22T13:03:08.494Z,18.32
2022-10-22T13:05:39.815Z,18.44
2022-10-22T13:08:11.781Z,18.53
2022-10-22T13:10:42.722Z,18.61
2022-10-22T13:13:33.131Z,18.74
2022-10-22T13:16:20.309Z,18.81
2022-10-22T13:18:49.789Z,18.88
2022-10-22T13:21:27.956Z,18.95
2022-10-22T13:23:59.185Z,19.00
2022-10-22T13:26:35.289Z,19.00
2022-10-22T13:29:10.635Z,18.95
2022-10-22T13:31:47.294Z,18.97
2022-10-22T13:34:19.418Z,19.01
2022-10-22T13:36:48.036Z,19.04
2022-10-22T13:39:19.195Z,19.06
2022-10-22T13:41:50.657Z,19.08
2022-10-22T13:44:19.669Z,19.11
2022-10-22T13:46:49.471Z,19.15
2022-10-22T13:49:20.999Z,19.15
2022-10-22T13:51:50.725Z,19.19
2022-10-22T13:54:23.689Z,19.19
2022-10-22T13:56:53.837Z,19.22
2022-10-22T13:59:23.848Z,19.28
2022-10-22T14:01:53.176Z,19.35
2022-10-22T14:04:21.817Z,19.35
2022-10-22T14:06:50.179Z,19.30
2022-10-22T14:09:23.420Z,19.28
2022-10-22T14:11:53.152Z,19.30
2022-10-22T14:14:21.626Z,19.32
2022-10-22T14:16:50.013Z,19.35
2022-10-22T14:19:19.444Z,19.39
2022-10-22T14:21:49.239Z,19.40
2022-10-22T14:24:17.745Z,19.43
2022-10-22T14:26:46.245Z,19.53
2022-10-22T14:29:16.007Z,19.65
2022-10-22T14:31:45.158Z,19.83
2022-10-22T14:34:15.998Z,20.00
2022-10-22T14:36:46.860Z,20.08
2022-10-22T14:39:15.261Z,20.12
2022-10-22T14:41:43.977Z,20.01
2022-10-22T14:44:14.332Z,19.82
2022-10-22T14:46:44.884Z,19.65
2022-10-22T14:49:13.831Z,19.53
2022-10-22T14:51:43.200Z,19.40
2022-10-22T14:54:11.612Z,19.32
2022-10-22T14:56:39.945Z,19.23
2022-10-22T14:59:08.372Z,19.14
2022-10-22T15:01:36.807Z,19.05
2022-10-22T15:04:06.669Z,19.00
2022-10-22T15:06:35.053Z,18.94
2022-10-22T15:09:04.423Z,18.88
2022-10-22T15:11:32.849Z,18.83
2022-10-22T15:14:01.237Z,18.76
2022-10-22T15:16:29.753Z,18.69
2022-10-22T15:18:59.735Z,18.64
2022-10-22T15:21:29.560Z,18.58
2022-10-22T15:23:57.984Z,18.51
2022-10-22T15:26:26.287Z,18.44
2022-10-22T15:28:54.693Z,18.37
2022-10-22T15:31:43.591Z,18.29
2022-10-22T15:34:11.919Z,18.21
2022-10-22T15:36:41.651Z,18.14
2022-10-22T15:39:11.224Z,18.08
2022-10-22T15:41:39.712Z,18.01
2022-10-22T15:44:08.765Z,17.93
2022-10-22T15:46:37.248Z,17.81
2022-10-22T15:49:05.625Z,17.71
2022-10-22T15:51:33.956Z,17.63
2022-10-22T15:54:06.626Z,17.56
2022-10-22T15:56:38.416Z,17.47
2022-10-22T15:59:07.032Z,17.37
2022-10-22T16:01:36.307Z,17.27
2022-10-22T16:04:05.608Z,17.17
2022-10-22T16:06:36.713Z,17.06
2022-10-22T16:09:08.815Z,16.98
2022-10-22T16:11:37.887Z,16.89
2022-10-22T16:14:07.275Z,16.82
2022-10-22T16:16:39.452Z,16.77
2022-10-22T16:19:07.838Z,16.71
2022-10-22T16:21:36.171Z,16.66
2022-10-22T16:24:06.592Z,16.59
2022-10-22T16:26:35.429Z,16.52
2022-10-22T16:29:05.852Z,16.45
2022-10-22T16:31:34.204Z,16.42
2022-10-22T16:34:02.954Z,16.37
2022-10-22T16:36:31.303Z,16.31
2022-10-22T16:38:59.652Z,16.26
2022-10-22T16:41:35.880Z,16.23
2022-10-22T16:44:07.818Z,16.18
2022-10-22T16:46:38.568Z,16.14
2022-10-22T16:49:08.061Z,16.10
2022-10-22T16:51:37.257Z,16.07
2022-10-22T16:54:08.356Z,16.05
2022-10-22T16:56:41.244Z,16.02
2022-10-22T16:59:09.655Z,15.98
2022-10-22T17:01:40.938Z,15.96
2022-10-22T17:04:10.226Z,15.93
2022-10-22T17:06:38.694Z,15.90
2022-10-22T17:09:07.149Z,15.86
2022-10-22T17:11:37.261Z,15.81
2022-10-22T17:14:08.863Z,15.78
2022-10-22T17:16:37.267Z,15.75
2022-10-22T17:19:05.985Z,15.73
2022-10-22T17:21:34.987Z,15.72
2022-10-22T17:24:03.376Z,15.70
2022-10-22T17:26:33.329Z,15.66
2022-10-22T17:29:01.972Z,15.65
2022-10-22T17:31:33.183Z,15.64
2022-10-22T17:34:01.613Z,15.61
2022-10-22T17:36:34.815Z,15.58
2022-10-22T17:39:07.549Z,15.56
2022-10-22T17:41:38.222Z,15.54
2022-10-22T17:44:09.949Z,15.50
2022-10-22T17:46:39.946Z,15.49
2022-10-22T17:49:16.355Z,15.47
2022-10-22T17:51:44.936Z,15.45
2022-10-22T17:54:13.889Z,15.43
2022-10-22T17:56:42.287Z,15.43
2022-10-22T17:59:12.951Z,15.39
2022-10-22T18:01:45.712Z,15.36
2022-10-22T18:04:16.740Z,15.32
2022-10-22T18:06:46.721Z,15.29
2022-10-22T18:09:18.489Z,15.25
2022-10-22T18:11:47.970Z,15.24
2022-10-22T18:14:18.397Z,15.23
2022-10-22T18:16:49.144Z,15.20
2022-10-22T18:19:20.168Z,15.18
2022-10-22T18:21:48.503Z,15.18
2022-10-22T18:24:17.720Z,15.18
2022-10-22T18:26:46.568Z,15.18
2022-10-22T18:29:18.040Z,15.14
2022-10-22T18:31:48.339Z,15.14
2022-10-22T18:34:20.247Z,15.12
2022-10-22T18:36:51.435Z,15.10
2022-10-22T18:39:20.074Z,15.07
2022-10-22T18:41:48.481Z,15.02
2022-10-22T18:44:17.992Z,15.00
2022-10-22T18:46:46.355Z,14.93
2022-10-22T18:49:19.285Z,14.90
2022-10-22T18:51:52.491Z,14.89
2022-10-22T18:54:23.948Z,14.86
2022-10-22T18:56:53.083Z,14.84
2022-10-22T18:59:23.499Z,14.81
2022-10-22T19:01:53.693Z,14.80
2022-10-22T19:04:23.468Z,14.75
2022-10-22T19:06:51.813Z,14.73
2022-10-22T19:09:20.522Z,14.69
2022-10-22T19:11:50.313Z,14.67
2022-10-22T19:14:20.441Z,14.65
2022-10-22T19:16:49.312Z,14.64
2022-10-22T19:19:20.473Z,14.64
2022-10-22T19:21:50.867Z,14.64
2022-10-22T19:24:21.019Z,14.64
2022-10-22T19:26:50.768Z,14.65
2022-10-22T19:29:21.216Z,14.63
2022-10-22T19:31:51.141Z,14.63
2022-10-22T19:34:20.572Z,14.62
2022-10-22T19:36:51.849Z,14.60
2022-10-22T19:39:20.445Z,14.58
2022-10-22T19:41:48.988Z,14.56
2022-10-22T19:44:17.531Z,14.54
2022-10-22T19:46:45.941Z,14.51
2022-10-22T19:49:18.869Z,14.47
2022-10-22T19:51:51.931Z,14.45
2022-10-22T19:54:20.578Z,14.44
2022-10-22T19:56:50.066Z,14.42
2022-10-22T19:59:20.473Z,14.40
2022-10-22T20:01:48.863Z,14.40
2022-10-22T20:04:18.759Z,14.37
2022-10-22T20:06:47.584Z,14.37
2022-10-22T20:09:19.051Z,14.37
2022-10-22T20:11:47.641Z,14.35
2022-10-22T20:14:21.306Z,14.34
2022-10-22T20:16:49.684Z,14.34
2022-10-22T20:19:21.560Z,14.31
2022-10-22T20:21:50.550Z,14.30
2022-10-22T20:24:21.112Z,14.29
2022-10-22T20:26:49.483Z,14.28
2022-10-22T20:29:20.658Z,14.26
2022-10-22T20:31:49.344Z,14.25
2022-10-22T20:34:17.799Z,14.26
2022-10-22T20:36:46.322Z,14.25
2022-10-22T20:39:17.198Z,14.23
2022-10-22T20:41:46.948Z,14.20
2022-10-22T20:44:17.885Z,14.16
2022-10-22T20:46:46.724Z,14.17
2022-10-22T20:49:17.155Z,14.18
2022-10-22T20:51:45.843Z,14.18
2022-10-22T20:54:16.743Z,14.18
2022-10-22T20:56:49.098Z,14.17
2022-10-22T20:59:17.861Z,14.16
2022-10-22T21:01:48.889Z,14.18
2022-10-22T21:04:19.606Z,14.22
2022-10-22T21:06:50.157Z,14.23
2022-10-22T21:09:18.691Z,14.26
2022-10-22T21:11:48.656Z,14.24
2022-10-22T21:14:20.188Z,14.20
2022-10-22T21:16:51.083Z,14.16
2022-10-22T21:19:22.491Z,14.12
2022-10-22T21:21:50.944Z,14.10
2022-10-22T21:24:19.808Z,14.08
2022-10-22T21:26:49.552Z,14.09
2022-10-22T21:29:17.935Z,14.09
2022-10-22T21:31:46.266Z,14.04
2022-10-22T21:34:14.978Z,14.03
2022-10-22T21:36:43.641Z,14.00
2022-10-22T21:39:13.311Z,13.99
2022-10-22T21:41:41.882Z,13.99
2022-10-22T21:44:11.556Z,14.00
2022-10-22T21:46:39.965Z,14.01
2022-10-22T21:49:08.280Z,14.04
2022-10-22T21:51:38.193Z,14.05
2022-10-22T21:54:06.892Z,14.04
2022-10-22T21:56:36.425Z,14.03
2022-10-22T21:59:06.483Z,14.04
2022-10-22T22:01:36.648Z,14.04
2022-10-22T22:04:05.081Z,14.04
2022-10-22T22:06:35.102Z,14.04
2022-10-22T22:09:04.880Z,14.02
2022-10-22T22:11:33.547Z,13.99
2022-10-22T22:14:01.977Z,13.96
2022-10-22T22:16:32.835Z,13.95
2022-10-22T22:19:05.997Z,13.90
2022-10-22T22:21:35.731Z,13.87
2022-10-22T22:24:04.936Z,13.83
2022-10-22T22:26:33.712Z,13.78
2022-10-22T22:29:02.150Z,13.73
2022-10-22T22:31:32.495Z,13.70
2022-10-22T22:34:04.218Z,13.66
2022-10-22T22:36:35.287Z,13.64
2022-10-22T22:39:05.233Z,13.60
2022-10-22T22:41:33.805Z,13.57
2022-10-22T22:44:02.346Z,13.56
2022-10-22T22:46:30.864Z,13.56
2022-10-22T22:48:59.135Z,13.58
2022-10-22T22:51:28.823Z,13.58
2022-10-22T22:53:58.715Z,13.57
2022-10-22T22:56:28.867Z,13.58
2022-10-22T22:58:58.700Z,13.56
2022-10-22T23:01:28.854Z,13.52
2022-10-22T23:03:59.263Z,13.49
2022-10-22T23:06:31.091Z,13.46
2022-10-22T23:09:00.234Z,13.45
2022-10-22T23:11:29.579Z,13.46
2022-10-22T23:13:59.625Z,13.46
2022-10-22T23:16:30.068Z,13.45
2022-10-22T23:18:59.165Z,13.43
2022-10-22T23:21:31.428Z,13.40
2022-10-22T23:24:02.850Z,13.34
2022-10-22T23:26:33.106Z,13.29
2022-10-22T23:29:02.223Z,13.27
2022-10-22T23:31:30.966Z,13.25
2022-10-22T23:33:59.340Z,13.24
2022-10-22T23:36:29.527Z,13.22
2022-10-22T23:38:57.920Z,13.24
2022-10-22T23:41:26.269Z,13.24
2022-10-22T23:43:54.645Z,13.22
2022-10-22T23:46:23.255Z,13.20
2022-10-22T23:48:53.722Z,13.18
2022-10-22T23:51:22.738Z,13.17
2022-10-22T23:53:57.405Z,13.15
2022-10-22T23:56:26.563Z,13.14
2022-10-22T23:58:56.015Z,13.12
